sensor_id;sensor_type;location;lat;lon;timestamp;P1;durP1;ratioP1;P2;durP2;ratioP2
49296;SDS011;35163;48.878;18.040;2022-07-21T00:00:21;15.32;;;4.72;;
49296;SDS011;35163;48.878;18.040;2022-07-21T00:02:49;10.32;;;4.95;;
49296;SDS011;35163;48.878;18.040;2022-07-21T00:05:16;10.52;;;4.85;;
49296;SDS011;35163;48.878;18.040;2022-07-21T00:07:43;12.35;;;4.80;;
49296;SDS011;35163;48.878;18.040;2022-07-21T00:10:10;12.95;;;4.93;;
49296;SDS011;35163;48.878;18.040;2022-07-21T00:12:37;16.77;;;5.28;;
49296;SDS011;35163;48.878;18.040;2022-07-21T00:15:04;12.90;;;5.00;;
49296;SDS011;35163;48.878;18.040;2022-07-21T00:17:32;14.55;;;4.15;;
49296;SDS011;35163;48.878;18.040;2022-07-21T00:20:00;11.23;;;4.75;;
49296;SDS011;35163;48.878;18.040;2022-07-21T00:22:27;10.90;;;4.90;;
49296;SDS011;35163;48.878;18.040;2022-07-21T00:24:54;12.35;;;5.18;;
49296;SDS011;35163;48.878;18.040;2022-07-21T00:27:20;12.52;;;4.68;;
49296;SDS011;35163;48.878;18.040;2022-07-21T00:29:47;13.75;;;5.88;;
49296;SDS011;35163;48.878;18.040;2022-07-21T00:32:14;13.73;;;4.82;;
49296;SDS011;35163;48.878;18.040;2022-07-21T00:34:40;9.77;;;4.55;;
49296;SDS011;35163;48.878;18.040;2022-07-21T00:37:07;12.95;;;5.00;;
49296;SDS011;35163;48.878;18.040;2022-07-21T00:39:34;14.65;;;5.40;;
49296;SDS011;35163;48.878;18.040;2022-07-21T00:42:01;11.77;;;5.00;;
49296;SDS011;35163;48.878;18.040;2022-07-21T00:44:28;14.70;;;5.13;;
49296;SDS011;35163;48.878;18.040;2022-07-21T00:46:56;14.35;;;4.88;;
49296;SDS011;35163;48.878;18.040;2022-07-21T00:49:23;11.07;;;5.18;;
49296;SDS011;35163;48.878;18.040;2022-07-21T00:51:51;10.57;;;4.57;;
49296;SDS011;35163;48.878;18.040;2022-07-21T00:54:18;10.38;;;4.38;;
49296;SDS011;35163;48.878;18.040;2022-07-21T00:56:45;10.73;;;4.60;;
49296;SDS011;35163;48.878;18.040;2022-07-21T00:59:12;17.33;;;4.60;;
49296;SDS011;35163;48.878;18.040;2022-07-21T01:01:41;13.50;;;4.78;;
49296;SDS011;35163;48.878;18.040;2022-07-21T01:04:07;10.73;;;5.32;;
49296;SDS011;35163;48.878;18.040;2022-07-21T01:06:34;8.50;;;4.07;;
49296;SDS011;35163;48.878;18.040;2022-07-21T01:09:01;15.52;;;5.35;;
49296;SDS011;35163;48.878;18.040;2022-07-21T01:11:36;10.65;;;4.47;;
49296;SDS011;35163;48.878;18.040;2022-07-21T01:14:03;10.52;;;5.25;;
49296;SDS011;35163;48.878;18.040;2022-07-21T01:16:30;13.40;;;4.38;;
49296;SDS011;35163;48.878;18.040;2022-07-21T01:18:58;12.32;;;5.35;;
49296;SDS011;35163;48.878;18.040;2022-07-21T01:23:51;12.45;;;4.95;;
49296;SDS011;35163;48.878;18.040;2022-07-21T01:26:18;15.02;;;5.35;;
49296;SDS011;35163;48.878;18.040;2022-07-21T01:28:45;10.48;;;5.05;;
49296;SDS011;35163;48.878;18.040;2022-07-21T01:31:12;13.25;;;4.70;;
49296;SDS011;35163;48.878;18.040;2022-07-21T01:33:39;11.35;;;4.88;;
49296;SDS011;35163;48.878;18.040;2022-07-21T01:36:07;10.82;;;4.40;;
49296;SDS011;35163;48.878;18.040;2022-07-21T01:38:34;12.18;;;4.88;;
49296;SDS011;35163;48.878;18.040;2022-07-21T01:41:19;10.82;;;5.00;;
49296;SDS011;35163;48.878;18.040;2022-07-21T01:43:56;12.35;;;5.07;;
49296;SDS011;35163;48.878;18.040;2022-07-21T01:46:23;11.65;;;4.82;;
49296;SDS011;35163;48.878;18.040;2022-07-21T01:48:50;11.18;;;5.63;;
49296;SDS011;35163;48.878;18.040;2022-07-21T01:51:18;10.55;;;5.40;;
49296;SDS011;35163;48.878;18.040;2022-07-21T01:53:44;11.85;;;5.28;;
49296;SDS011;35163;48.878;18.040;2022-07-21T01:56:11;11.20;;;5.65;;
49296;SDS011;35163;48.878;18.040;2022-07-21T01:58:38;14.90;;;4.88;;
49296;SDS011;35163;48.878;18.040;2022-07-21T02:01:04;12.55;;;5.40;;
49296;SDS011;35163;48.878;18.040;2022-07-21T02:03:31;10.10;;;4.65;;
49296;SDS011;35163;48.878;18.040;2022-07-21T02:06:07;11.82;;;5.35;;
49296;SDS011;35163;48.878;18.040;2022-07-21T02:08:35;14.27;;;5.47;;
49296;SDS011;35163;48.878;18.040;2022-07-21T02:11:03;10.32;;;5.30;;
49296;SDS011;35163;48.878;18.040;2022-07-21T02:13:30;10.68;;;4.82;;
49296;SDS011;35163;48.878;18.040;2022-07-21T02:15:57;10.80;;;4.88;;
49296;SDS011;35163;48.878;18.040;2022-07-21T02:18:24;12.43;;;5.20;;
49296;SDS011;35163;48.878;18.040;2022-07-21T02:20:51;11.18;;;5.20;;
49296;SDS011;35163;48.878;18.040;2022-07-21T02:23:18;10.52;;;5.30;;
49296;SDS011;35163;48.878;18.040;2022-07-21T02:25:45;12.25;;;4.30;;
49296;SDS011;35163;48.878;18.040;2022-07-21T02:28:13;10.43;;;4.10;;
49296;SDS011;35163;48.878;18.040;2022-07-21T02:30:40;11.45;;;5.60;;
49296;SDS011;35163;48.878;18.040;2022-07-21T02:33:07;11.65;;;4.47;;
49296;SDS011;35163;48.878;18.040;2022-07-21T02:35:34;12.75;;;5.18;;
49296;SDS011;35163;48.878;18.040;2022-07-21T02:38:00;10.90;;;4.80;;
49296;SDS011;35163;48.878;18.040;2022-07-21T02:40:27;10.90;;;5.10;;
49296;SDS011;35163;48.878;18.040;2022-07-21T02:42:54;9.75;;;4.72;;
49296;SDS011;35163;48.878;18.040;2022-07-21T02:45:21;10.93;;;5.28;;
49296;SDS011;35163;48.878;18.040;2022-07-21T02:47:52;11.80;;;4.65;;
49296;SDS011;35163;48.878;18.040;2022-07-21T02:50:26;11.55;;;4.80;;
49296;SDS011;35163;48.878;18.040;2022-07-21T02:52:56;11.65;;;5.28;;
49296;SDS011;35163;48.878;18.040;2022-07-21T02:55:24;15.32;;;5.45;;
49296;SDS011;35163;48.878;18.040;2022-07-21T03:00:57;14.38;;;5.35;;
49296;SDS011;35163;48.878;18.040;2022-07-21T03:03:28;13.20;;;4.90;;
49296;SDS011;35163;48.878;18.040;2022-07-21T03:05:57;15.55;;;5.68;;
49296;SDS011;35163;48.878;18.040;2022-07-21T03:08:24;13.85;;;5.78;;
49296;SDS011;35163;48.878;18.040;2022-07-21T03:10:52;15.05;;;6.25;;
49296;SDS011;35163;48.878;18.040;2022-07-21T03:13:19;18.80;;;7.38;;
49296;SDS011;35163;48.878;18.040;2022-07-21T03:15:46;15.00;;;8.73;;
49296;SDS011;35163;48.878;18.040;2022-07-21T03:18:13;19.90;;;8.93;;
49296;SDS011;35163;48.878;18.040;2022-07-21T03:20:41;19.80;;;7.18;;
49296;SDS011;35163;48.878;18.040;2022-07-21T03:23:08;12.57;;;6.60;;
49296;SDS011;35163;48.878;18.040;2022-07-21T03:25:35;13.30;;;6.43;;
49296;SDS011;35163;48.878;18.040;2022-07-21T03:28:02;12.48;;;6.35;;
49296;SDS011;35163;48.878;18.040;2022-07-21T03:30:30;15.60;;;7.30;;
49296;SDS011;35163;48.878;18.040;2022-07-21T03:32:56;16.63;;;6.35;;
49296;SDS011;35163;48.878;18.040;2022-07-21T03:35:23;11.43;;;6.22;;
49296;SDS011;35163;48.878;18.040;2022-07-21T03:37:51;13.32;;;6.22;;
49296;SDS011;35163;48.878;18.040;2022-07-21T03:40:20;12.85;;;6.22;;
49296;SDS011;35163;48.878;18.040;2022-07-21T03:42:51;10.05;;;4.95;;
49296;SDS011;35163;48.878;18.040;2022-07-21T03:45:21;13.55;;;5.38;;
49296;SDS011;35163;48.878;18.040;2022-07-21T03:47:50;13.35;;;5.22;;
49296;SDS011;35163;48.878;18.040;2022-07-21T03:50:17;15.27;;;6.00;;
49296;SDS011;35163;48.878;18.040;2022-07-21T03:52:44;13.18;;;5.78;;
49296;SDS011;35163;48.878;18.040;2022-07-21T03:55:11;17.80;;;6.32;;
49296;SDS011;35163;48.878;18.040;2022-07-21T03:57:42;14.73;;;6.15;;
49296;SDS011;35163;48.878;18.040;2022-07-21T04:00:15;11.65;;;5.82;;
49296;SDS011;35163;48.878;18.040;2022-07-21T04:02:43;11.38;;;5.75;;
49296;SDS011;35163;48.878;18.040;2022-07-21T04:05:11;12.75;;;5.53;;
49296;SDS011;35163;48.878;18.040;2022-07-21T04:07:40;11.43;;;5.43;;
49296;SDS011;35163;48.878;18.040;2022-07-21T04:10:08;12.95;;;5.30;;
49296;SDS011;35163;48.878;18.040;2022-07-21T04:12:36;20.58;;;6.10;;
49296;SDS011;35163;48.878;18.040;2022-07-21T04:15:04;11.95;;;5.93;;
49296;SDS011;35163;48.878;18.040;2022-07-21T04:17:31;12.90;;;6.03;;
49296;SDS011;35163;48.878;18.040;2022-07-21T04:19:58;13.68;;;5.90;;
49296;SDS011;35163;48.878;18.040;2022-07-21T04:22:25;11.25;;;6.57;;
49296;SDS011;35163;48.878;18.040;2022-07-21T04:24:52;16.13;;;6.15;;
49296;SDS011;35163;48.878;18.040;2022-07-21T04:27:18;13.13;;;6.38;;
49296;SDS011;35163;48.878;18.040;2022-07-21T04:29:45;15.05;;;6.80;;
49296;SDS011;35163;48.878;18.040;2022-07-21T04:32:12;15.52;;;5.47;;
49296;SDS011;35163;48.878;18.040;2022-07-21T04:34:38;15.32;;;6.13;;
49296;SDS011;35163;48.878;18.040;2022-07-21T04:37:05;10.13;;;5.10;;
49296;SDS011;35163;48.878;18.040;2022-07-21T04:39:32;13.55;;;5.47;;
49296;SDS011;35163;48.878;18.040;2022-07-21T04:41:58;12.27;;;5.80;;
49296;SDS011;35163;48.878;18.040;2022-07-21T04:44:25;11.40;;;5.00;;
49296;SDS011;35163;48.878;18.040;2022-07-21T04:46:53;10.00;;;5.30;;
49296;SDS011;35163;48.878;18.040;2022-07-21T04:49:20;10.73;;;5.50;;
49296;SDS011;35163;48.878;18.040;2022-07-21T04:51:47;11.60;;;5.88;;
49296;SDS011;35163;48.878;18.040;2022-07-21T04:54:14;16.45;;;5.93;;
49296;SDS011;35163;48.878;18.040;2022-07-21T04:56:42;16.50;;;6.30;;
49296;SDS011;35163;48.878;18.040;2022-07-21T04:59:09;10.85;;;5.43;;
49296;SDS011;35163;48.878;18.040;2022-07-21T05:01:37;12.68;;;4.88;;
49296;SDS011;35163;48.878;18.040;2022-07-21T05:04:05;13.90;;;4.82;;
49296;SDS011;35163;48.878;18.040;2022-07-21T05:06:33;17.10;;;6.07;;
49296;SDS011;35163;48.878;18.040;2022-07-21T05:09:00;11.38;;;5.00;;
49296;SDS011;35163;48.878;18.040;2022-07-21T05:11:27;12.57;;;5.80;;
49296;SDS011;35163;48.878;18.040;2022-07-21T05:13:53;13.38;;;5.22;;
49296;SDS011;35163;48.878;18.040;2022-07-21T05:16:20;10.13;;;5.47;;
49296;SDS011;35163;48.878;18.040;2022-07-21T05:18:48;12.40;;;5.00;;
49296;SDS011;35163;48.878;18.040;2022-07-21T05:21:14;14.52;;;5.43;;
49296;SDS011;35163;48.878;18.040;2022-07-21T05:23:41;13.90;;;5.63;;
49296;SDS011;35163;48.878;18.040;2022-07-21T05:26:08;10.65;;;5.32;;
49296;SDS011;35163;48.878;18.040;2022-07-21T05:28:34;17.85;;;5.22;;
49296;SDS011;35163;48.878;18.040;2022-07-21T05:31:01;10.52;;;4.93;;
49296;SDS011;35163;48.878;18.040;2022-07-21T05:33:28;11.85;;;4.38;;
49296;SDS011;35163;48.878;18.040;2022-07-21T05:35:54;11.98;;;4.95;;
49296;SDS011;35163;48.878;18.040;2022-07-21T05:38:21;12.85;;;4.78;;
49296;SDS011;35163;48.878;18.040;2022-07-21T05:40:53;13.88;;;5.43;;
49296;SDS011;35163;48.878;18.040;2022-07-21T05:43:20;10.73;;;4.75;;
49296;SDS011;35163;48.878;18.040;2022-07-21T05:45:46;12.10;;;5.07;;
49296;SDS011;35163;48.878;18.040;2022-07-21T05:48:13;13.43;;;5.20;;
49296;SDS011;35163;48.878;18.040;2022-07-21T05:50:40;12.57;;;4.50;;
49296;SDS011;35163;48.878;18.040;2022-07-21T05:53:07;10.60;;;4.85;;
49296;SDS011;35163;48.878;18.040;2022-07-21T05:55:34;11.85;;;4.55;;
49296;SDS011;35163;48.878;18.040;2022-07-21T05:58:00;12.63;;;4.57;;
49296;SDS011;35163;48.878;18.040;2022-07-21T06:03:01;16.30;;;4.82;;
49296;SDS011;35163;48.878;18.040;2022-07-21T06:05:28;9.32;;;4.45;;
49296;SDS011;35163;48.878;18.040;2022-07-21T06:07:54;10.73;;;4.32;;
49296;SDS011;35163;48.878;18.040;2022-07-21T06:10:21;14.45;;;5.25;;
49296;SDS011;35163;48.878;18.040;2022-07-21T06:12:50;15.40;;;4.80;;
49296;SDS011;35163;48.878;18.040;2022-07-21T06:15:16;10.23;;;4.93;;
49296;SDS011;35163;48.878;18.040;2022-07-21T06:17:44;8.85;;;4.35;;
49296;SDS011;35163;48.878;18.040;2022-07-21T06:20:12;9.80;;;4.20;;
49296;SDS011;35163;48.878;18.040;2022-07-21T06:22:39;15.85;;;4.38;;
49296;SDS011;35163;48.878;18.040;2022-07-21T06:25:06;10.02;;;4.40;;
49296;SDS011;35163;48.878;18.040;2022-07-21T06:27:33;11.40;;;4.78;;
49296;SDS011;35163;48.878;18.040;2022-07-21T06:29:59;11.15;;;4.63;;
49296;SDS011;35163;48.878;18.040;2022-07-21T06:32:27;11.52;;;5.10;;
49296;SDS011;35163;48.878;18.040;2022-07-21T06:34:53;9.85;;;4.00;;
49296;SDS011;35163;48.878;18.040;2022-07-21T06:37:20;15.32;;;4.60;;
49296;SDS011;35163;48.878;18.040;2022-07-21T06:39:47;13.35;;;4.50;;
49296;SDS011;35163;48.878;18.040;2022-07-21T06:42:14;18.83;;;5.03;;
49296;SDS011;35163;48.878;18.040;2022-07-21T06:44:41;10.90;;;4.55;;
49296;SDS011;35163;48.878;18.040;2022-07-21T06:47:11;10.85;;;4.53;;
49296;SDS011;35163;48.878;18.040;2022-07-21T06:49:38;7.78;;;3.90;;
49296;SDS011;35163;48.878;18.040;2022-07-21T06:52:04;11.07;;;4.10;;
49296;SDS011;35163;48.878;18.040;2022-07-21T06:54:31;9.55;;;4.45;;
49296;SDS011;35163;48.878;18.040;2022-07-21T06:56:58;10.35;;;4.88;;
49296;SDS011;35163;48.878;18.040;2022-07-21T06:59:25;13.75;;;4.57;;
49296;SDS011;35163;48.878;18.040;2022-07-21T07:01:52;15.43;;;4.47;;
49296;SDS011;35163;48.878;18.040;2022-07-21T07:04:18;9.70;;;4.32;;
49296;SDS011;35163;48.878;18.040;2022-07-21T07:06:46;9.43;;;4.05;;
49296;SDS011;35163;48.878;18.040;2022-07-21T07:09:16;9.13;;;3.70;;
49296;SDS011;35163;48.878;18.040;2022-07-21T07:11:43;10.80;;;4.25;;
49296;SDS011;35163;48.878;18.040;2022-07-21T07:14:30;10.70;;;4.10;;
49296;SDS011;35163;48.878;18.040;2022-07-21T07:16:57;11.55;;;4.18;;
49296;SDS011;35163;48.878;18.040;2022-07-21T07:19:23;14.80;;;3.78;;
49296;SDS011;35163;48.878;18.040;2022-07-21T07:21:50;12.95;;;4.45;;
49296;SDS011;35163;48.878;18.040;2022-07-21T07:24:17;15.07;;;4.35;;
49296;SDS011;35163;48.878;18.040;2022-07-21T07:26:44;13.65;;;4.03;;
49296;SDS011;35163;48.878;18.040;2022-07-21T07:29:11;17.02;;;4.32;;
49296;SDS011;35163;48.878;18.040;2022-07-21T07:31:38;15.52;;;4.18;;
49296;SDS011;35163;48.878;18.040;2022-07-21T07:34:06;11.48;;;4.43;;
49296;SDS011;35163;48.878;18.040;2022-07-21T07:36:33;12.15;;;3.85;;
49296;SDS011;35163;48.878;18.040;2022-07-21T07:39:09;12.20;;;4.13;;
49296;SDS011;35163;48.878;18.040;2022-07-21T07:41:36;13.73;;;4.10;;
49296;SDS011;35163;48.878;18.040;2022-07-21T07:44:02;12.63;;;3.65;;
49296;SDS011;35163;48.878;18.040;2022-07-21T07:46:29;9.63;;;4.03;;
49296;SDS011;35163;48.878;18.040;2022-07-21T07:48:56;12.82;;;4.35;;
49296;SDS011;35163;48.878;18.040;2022-07-21T07:51:30;9.90;;;4.47;;
49296;SDS011;35163;48.878;18.040;2022-07-21T07:53:57;13.90;;;3.72;;
49296;SDS011;35163;48.878;18.040;2022-07-21T07:56:24;14.57;;;4.57;;
49296;SDS011;35163;48.878;18.040;2022-07-21T07:58:50;8.48;;;4.10;;
49296;SDS011;35163;48.878;18.040;2022-07-21T08:01:17;13.90;;;3.60;;
49296;SDS011;35163;48.878;18.040;2022-07-21T08:03:45;10.20;;;4.07;;
49296;SDS011;35163;48.878;18.040;2022-07-21T08:06:11;10.15;;;4.10;;
49296;SDS011;35163;48.878;18.040;2022-07-21T08:08:39;14.18;;;3.83;;
49296;SDS011;35163;48.878;18.040;2022-07-21T08:11:05;12.15;;;3.72;;
49296;SDS011;35163;48.878;18.040;2022-07-21T08:13:32;16.00;;;4.28;;
49296;SDS011;35163;48.878;18.040;2022-07-21T08:15:59;8.65;;;4.03;;
49296;SDS011;35163;48.878;18.040;2022-07-21T08:18:26;9.90;;;3.63;;
49296;SDS011;35163;48.878;18.040;2022-07-21T08:20:53;9.95;;;3.65;;
49296;SDS011;35163;48.878;18.040;2022-07-21T08:23:20;8.75;;;3.83;;
49296;SDS011;35163;48.878;18.040;2022-07-21T08:25:47;11.35;;;3.85;;
49296;SDS011;35163;48.878;18.040;2022-07-21T08:28:13;9.80;;;4.03;;
49296;SDS011;35163;48.878;18.040;2022-07-21T08:30:40;7.60;;;3.22;;
49296;SDS011;35163;48.878;18.040;2022-07-21T08:33:07;12.65;;;4.03;;
49296;SDS011;35163;48.878;18.040;2022-07-21T08:35:34;9.80;;;3.30;;
49296;SDS011;35163;48.878;18.040;2022-07-21T08:38:02;10.68;;;2.80;;
49296;SDS011;35163;48.878;18.040;2022-07-21T08:40:31;10.05;;;3.63;;
49296;SDS011;35163;48.878;18.040;2022-07-21T08:43:00;8.48;;;3.42;;
49296;SDS011;35163;48.878;18.040;2022-07-21T08:45:28;9.23;;;3.17;;
49296;SDS011;35163;48.878;18.040;2022-07-21T08:47:57;5.90;;;2.70;;
49296;SDS011;35163;48.878;18.040;2022-07-21T08:50:26;8.20;;;2.80;;
49296;SDS011;35163;48.878;18.040;2022-07-21T08:52:54;14.85;;;3.60;;
49296;SDS011;35163;48.878;18.040;2022-07-21T08:55:32;11.77;;;3.22;;
49296;SDS011;35163;48.878;18.040;2022-07-21T08:58:00;7.50;;;2.90;;
49296;SDS011;35163;48.878;18.040;2022-07-21T09:00:32;10.35;;;3.05;;
49296;SDS011;35163;48.878;18.040;2022-07-21T09:06:13;10.85;;;2.75;;
49296;SDS011;35163;48.878;18.040;2022-07-21T09:08:48;14.80;;;2.50;;
49296;SDS011;35163;48.878;18.040;2022-07-21T09:14:05;12.98;;;3.15;;
49296;SDS011;35163;48.878;18.040;2022-07-21T09:21:35;9.55;;;2.45;;
49296;SDS011;35163;48.878;18.040;2022-07-21T09:29:33;11.25;;;2.17;;
49296;SDS011;35163;48.878;18.040;2022-07-21T09:32:12;13.85;;;2.65;;
49296;SDS011;35163;48.878;18.040;2022-07-21T09:34:43;6.57;;;2.42;;
49296;SDS011;35163;48.878;18.040;2022-07-21T09:37:10;6.00;;;2.30;;
49296;SDS011;35163;48.878;18.040;2022-07-21T09:39:41;4.55;;;2.03;;
49296;SDS011;35163;48.878;18.040;2022-07-21T09:42:17;7.07;;;2.47;;
49296;SDS011;35163;48.878;18.040;2022-07-21T09:44:58;6.78;;;2.50;;
49296;SDS011;35163;48.878;18.040;2022-07-21T09:47:28;6.88;;;2.22;;
49296;SDS011;35163;48.878;18.040;2022-07-21T09:49:58;20.60;;;2.38;;
49296;SDS011;35163;48.878;18.040;2022-07-21T09:52:45;7.07;;;2.30;;
49296;SDS011;35163;48.878;18.040;2022-07-21T09:55:13;11.93;;;2.63;;
49296;SDS011;35163;48.878;18.040;2022-07-21T09:57:41;11.50;;;2.80;;
49296;SDS011;35163;48.878;18.040;2022-07-21T10:00:10;10.07;;;2.67;;
49296;SDS011;35163;48.878;18.040;2022-07-21T10:02:45;9.60;;;2.25;;
49296;SDS011;35163;48.878;18.040;2022-07-21T10:05:17;7.28;;;2.10;;
49296;SDS011;35163;48.878;18.040;2022-07-21T10:07:49;7.10;;;1.95;;
49296;SDS011;35163;48.878;18.040;2022-07-21T10:10:17;9.15;;;2.28;;
49296;SDS011;35163;48.878;18.040;2022-07-21T10:12:47;7.85;;;2.22;;
49296;SDS011;35163;48.878;18.040;2022-07-21T10:15:15;14.98;;;2.33;;
49296;SDS011;35163;48.878;18.040;2022-07-21T10:17:42;9.32;;;2.10;;
49296;SDS011;35163;48.878;18.040;2022-07-21T10:20:11;5.25;;;2.00;;
49296;SDS011;35163;48.878;18.040;2022-07-21T10:23:10;8.57;;;2.10;;
49296;SDS011;35163;48.878;18.040;2022-07-21T10:25:45;7.57;;;2.60;;
49296;SDS011;35163;48.878;18.040;2022-07-21T10:30:44;11.25;;;2.33;;
49296;SDS011;35163;48.878;18.040;2022-07-21T10:41:55;3.83;;;1.80;;
49296;SDS011;35163;48.878;18.040;2022-07-21T10:47:04;10.10;;;2.88;;
49296;SDS011;35163;48.878;18.040;2022-07-21T11:00:38;8.23;;;2.22;;
49296;SDS011;35163;48.878;18.040;2022-07-21T11:03:19;8.63;;;1.92;;
49296;SDS011;35163;48.878;18.040;2022-07-21T11:06:08;8.57;;;2.10;;
49296;SDS011;35163;48.878;18.040;2022-07-21T11:08:44;8.75;;;3.15;;
49296;SDS011;35163;48.878;18.040;2022-07-21T11:11:14;13.80;;;2.42;;
49296;SDS011;35163;48.878;18.040;2022-07-21T11:14:01;5.28;;;1.98;;
49296;SDS011;35163;48.878;18.040;2022-07-21T11:21:58;7.18;;;2.50;;
49296;SDS011;35163;48.878;18.040;2022-07-21T11:24:26;6.13;;;2.10;;
49296;SDS011;35163;48.878;18.040;2022-07-21T11:26:54;6.68;;;2.10;;
49296;SDS011;35163;48.878;18.040;2022-07-21T11:29:25;5.57;;;1.80;;
49296;SDS011;35163;48.878;18.040;2022-07-21T11:31:53;3.50;;;2.03;;
49296;SDS011;35163;48.878;18.040;2022-07-21T11:34:20;3.90;;;1.80;;
49296;SDS011;35163;48.878;18.040;2022-07-21T11:36:47;5.63;;;2.25;;
49296;SDS011;35163;48.878;18.040;2022-07-21T11:39:34;5.68;;;2.08;;
49296;SDS011;35163;48.878;18.040;2022-07-21T11:42:02;7.30;;;1.85;;
49296;SDS011;35163;48.878;18.040;2022-07-21T11:44:31;10.02;;;2.40;;
49296;SDS011;35163;48.878;18.040;2022-07-21T11:46:59;6.97;;;2.30;;
49296;SDS011;35163;48.878;18.040;2022-07-21T11:49:27;3.65;;;2.05;;
49296;SDS011;35163;48.878;18.040;2022-07-21T11:51:57;12.07;;;2.40;;
49296;SDS011;35163;48.878;18.040;2022-07-21T11:54:35;8.38;;;1.95;;
49296;SDS011;35163;48.878;18.040;2022-07-21T11:57:05;6.90;;;2.40;;
49296;SDS011;35163;48.878;18.040;2022-07-21T11:59:34;7.55;;;2.30;;
49296;SDS011;35163;48.878;18.040;2022-07-21T12:02:04;5.68;;;2.42;;
49296;SDS011;35163;48.878;18.040;2022-07-21T12:07:07;5.07;;;2.40;;
49296;SDS011;35163;48.878;18.040;2022-07-21T12:09:39;7.55;;;2.33;;
49296;SDS011;35163;48.878;18.040;2022-07-21T12:12:10;6.90;;;2.15;;
49296;SDS011;35163;48.878;18.040;2022-07-21T12:18:02;11.80;;;2.70;;
49296;SDS011;35163;48.878;18.040;2022-07-21T12:20:32;6.85;;;2.08;;
49296;SDS011;35163;48.878;18.040;2022-07-21T12:23:17;7.72;;;2.42;;
49296;SDS011;35163;48.878;18.040;2022-07-21T12:25:44;10.20;;;2.97;;
49296;SDS011;35163;48.878;18.040;2022-07-21T12:28:11;6.80;;;2.40;;
49296;SDS011;35163;48.878;18.040;2022-07-21T12:30:42;6.55;;;2.58;;
49296;SDS011;35163;48.878;18.040;2022-07-21T12:33:11;11.77;;;2.55;;
49296;SDS011;35163;48.878;18.040;2022-07-21T12:35:56;4.65;;;2.50;;
49296;SDS011;35163;48.878;18.040;2022-07-21T12:38:35;10.18;;;2.97;;
49296;SDS011;35163;48.878;18.040;2022-07-21T12:44:02;7.10;;;2.40;;
49296;SDS011;35163;48.878;18.040;2022-07-21T12:46:32;12.35;;;2.50;;
49296;SDS011;35163;48.878;18.040;2022-07-21T12:49:04;6.45;;;2.35;;
49296;SDS011;35163;48.878;18.040;2022-07-21T12:51:36;8.55;;;2.38;;
49296;SDS011;35163;48.878;18.040;2022-07-21T12:54:03;10.02;;;2.55;;
49296;SDS011;35163;48.878;18.040;2022-07-21T12:56:32;7.20;;;2.50;;
49296;SDS011;35163;48.878;18.040;2022-07-21T12:59:00;7.22;;;2.38;;
49296;SDS011;35163;48.878;18.040;2022-07-21T13:01:28;6.22;;;2.42;;
49296;SDS011;35163;48.878;18.040;2022-07-21T13:04:03;8.98;;;2.63;;
49296;SDS011;35163;48.878;18.040;2022-07-21T13:06:30;11.57;;;2.67;;
49296;SDS011;35163;48.878;18.040;2022-07-21T13:08:57;9.90;;;3.25;;
49296;SDS011;35163;48.878;18.040;2022-07-21T13:11:24;5.72;;;2.25;;
49296;SDS011;35163;48.878;18.040;2022-07-21T13:13:51;11.48;;;2.78;;
49296;SDS011;35163;48.878;18.040;2022-07-21T13:16:19;5.30;;;2.40;;
49296;SDS011;35163;48.878;18.040;2022-07-21T13:18:49;8.18;;;2.65;;
49296;SDS011;35163;48.878;18.040;2022-07-21T13:21:17;14.50;;;2.80;;
49296;SDS011;35163;48.878;18.040;2022-07-21T13:23:44;13.68;;;2.58;;
49296;SDS011;35163;48.878;18.040;2022-07-21T13:26:10;9.23;;;2.60;;
49296;SDS011;35163;48.878;18.040;2022-07-21T13:28:37;9.80;;;3.10;;
49296;SDS011;35163;48.878;18.040;2022-07-21T13:31:05;10.55;;;2.80;;
49296;SDS011;35163;48.878;18.040;2022-07-21T13:33:33;7.88;;;2.70;;
49296;SDS011;35163;48.878;18.040;2022-07-21T13:36:03;10.38;;;2.20;;
49296;SDS011;35163;48.878;18.040;2022-07-21T13:38:31;10.65;;;2.38;;
49296;SDS011;35163;48.878;18.040;2022-07-21T13:40:57;5.75;;;2.65;;
49296;SDS011;35163;48.878;18.040;2022-07-21T13:43:44;5.72;;;2.20;;
49296;SDS011;35163;48.878;18.040;2022-07-21T13:46:12;12.23;;;2.92;;
49296;SDS011;35163;48.878;18.040;2022-07-21T13:48:39;14.52;;;2.55;;
49296;SDS011;35163;48.878;18.040;2022-07-21T13:51:13;10.30;;;2.47;;
49296;SDS011;35163;48.878;18.040;2022-07-21T13:53:42;7.72;;;2.72;;
49296;SDS011;35163;48.878;18.040;2022-07-21T13:56:10;10.38;;;2.75;;
49296;SDS011;35163;48.878;18.040;2022-07-21T13:58:38;10.30;;;2.97;;
49296;SDS011;35163;48.878;18.040;2022-07-21T14:01:05;6.20;;;2.20;;
49296;SDS011;35163;48.878;18.040;2022-07-21T14:03:34;8.65;;;2.30;;
49296;SDS011;35163;48.878;18.040;2022-07-21T14:06:02;8.80;;;2.92;;
49296;SDS011;35163;48.878;18.040;2022-07-21T14:08:29;8.10;;;2.40;;
49296;SDS011;35163;48.878;18.040;2022-07-21T14:10:55;11.07;;;2.28;;
49296;SDS011;35163;48.878;18.040;2022-07-21T14:13:22;7.13;;;2.55;;
49296;SDS011;35163;48.878;18.040;2022-07-21T14:15:49;6.57;;;1.92;;
49296;SDS011;35163;48.878;18.040;2022-07-21T14:18:16;6.63;;;2.60;;
49296;SDS011;35163;48.878;18.040;2022-07-21T14:20:42;8.85;;;2.47;;
49296;SDS011;35163;48.878;18.040;2022-07-21T14:23:09;10.40;;;2.53;;
49296;SDS011;35163;48.878;18.040;2022-07-21T14:25:36;9.75;;;3.33;;
49296;SDS011;35163;48.878;18.040;2022-07-21T14:28:02;7.18;;;2.55;;
49296;SDS011;35163;48.878;18.040;2022-07-21T14:30:29;11.15;;;2.78;;
49296;SDS011;35163;48.878;18.040;2022-07-21T14:32:56;8.85;;;2.55;;
49296;SDS011;35163;48.878;18.040;2022-07-21T14:35:23;13.60;;;2.75;;
49296;SDS011;35163;48.878;18.040;2022-07-21T14:37:51;8.23;;;3.00;;
49296;SDS011;35163;48.878;18.040;2022-07-21T14:40:18;14.25;;;6.20;;
49296;SDS011;35163;48.878;18.040;2022-07-21T14:42:46;9.23;;;3.15;;
49296;SDS011;35163;48.878;18.040;2022-07-21T14:45:15;12.25;;;3.08;;
49296;SDS011;35163;48.878;18.040;2022-07-21T14:47:52;11.77;;;3.70;;
49296;SDS011;35163;48.878;18.040;2022-07-21T14:50:20;17.23;;;7.80;;
49296;SDS011;35163;48.878;18.040;2022-07-21T14:52:53;12.80;;;3.88;;
49296;SDS011;35163;48.878;18.040;2022-07-21T14:55:21;15.75;;;5.78;;
49296;SDS011;35163;48.878;18.040;2022-07-21T14:57:51;13.90;;;5.10;;
49296;SDS011;35163;48.878;18.040;2022-07-21T15:00:18;13.00;;;3.55;;
49296;SDS011;35163;48.878;18.040;2022-07-21T15:02:45;10.80;;;3.22;;
49296;SDS011;35163;48.878;18.040;2022-07-21T15:05:12;7.05;;;3.08;;
49296;SDS011;35163;48.878;18.040;2022-07-21T15:07:39;11.88;;;3.83;;
49296;SDS011;35163;48.878;18.040;2022-07-21T15:10:06;12.07;;;4.45;;
49296;SDS011;35163;48.878;18.040;2022-07-21T15:12:33;65.07;;;37.80;;
49296;SDS011;35163;48.878;18.040;2022-07-21T15:15:00;28.95;;;17.02;;
49296;SDS011;35163;48.878;18.040;2022-07-21T15:17:27;39.38;;;18.13;;
49296;SDS011;35163;48.878;18.040;2022-07-21T15:19:55;46.88;;;27.42;;
49296;SDS011;35163;48.878;18.040;2022-07-21T15:22:25;42.33;;;23.02;;
49296;SDS011;35163;48.878;18.040;2022-07-21T15:24:57;34.97;;;21.30;;
49296;SDS011;35163;48.878;18.040;2022-07-21T15:27:25;46.45;;;26.58;;
49296;SDS011;35163;48.878;18.040;2022-07-21T15:29:53;34.33;;;14.10;;
49296;SDS011;35163;48.878;18.040;2022-07-21T15:32:20;32.15;;;16.92;;
49296;SDS011;35163;48.878;18.040;2022-07-21T15:34:47;23.65;;;11.00;;
49296;SDS011;35163;48.878;18.040;2022-07-21T15:37:14;42.75;;;20.45;;